sensor_id;sensor_type;location;lat;lon;timestamp;P1;durP1;ratioP1;P2;durP2;ratioP2
23519;SDS011;11936;50.820;4.336;2022-09-13T00:01:13;3.33;;;2.30;;
23519;SDS011;11936;50.820;4.336;2022-09-13T00:03:39;3.20;;;2.38;;
23519;SDS011;11936;50.820;4.336;2022-09-13T00:06:06;3.05;;;2.47;;
23519;SDS011;11936;50.820;4.336;2022-09-13T00:08:43;4.10;;;2.63;;
23519;SDS011;11936;50.820;4.336;2022-09-13T00:11:16;5.65;;;2.40;;
23519;SDS011;11936;50.820;4.336;2022-09-13T00:13:44;7.15;;;2.53;;
23519;SDS011;11936;50.820;4.336;2022-09-13T00:16:10;6.00;;;2.20;;
23519;SDS011;11936;50.820;4.336;2022-09-13T00:18:37;6.67;;;2.27;;
23519;SDS011;11936;50.820;4.336;2022-09-13T00:21:04;7.20;;;2.75;;
23519;SDS011;11936;50.820;4.336;2022-09-13T00:23:35;4.75;;;2.15;;
23519;SDS011;11936;50.820;4.336;2022-09-13T00:26:04;3.03;;;2.03;;
23519;SDS011;11936;50.820;4.336;2022-09-13T00:28:32;4.10;;;2.28;;
23519;SDS011;11936;50.820;4.336;2022-09-13T00:30:59;5.28;;;2.10;;
23519;SDS011;11936;50.820;4.336;2022-09-13T00:33:26;3.13;;;1.83;;
23519;SDS011;11936;50.820;4.336;2022-09-13T00:35:51;4.20;;;2.17;;
23519;SDS011;11936;50.820;4.336;2022-09-13T00:38:17;6.75;;;1.95;;
23519;SDS011;11936;50.820;4.336;2022-09-13T00:40:43;3.97;;;1.77;;
23519;SDS011;11936;50.820;4.336;2022-09-13T00:43:16;1.70;;;1.60;;
23519;SDS011;11936;50.820;4.336;2022-09-13T00:45:43;7.85;;;2.10;;
23519;SDS011;11936;50.820;4.336;2022-09-13T00:48:12;2.83;;;1.95;;
23519;SDS011;11936;50.820;4.336;2022-09-13T00:50:44;3.22;;;1.65;;
23519;SDS011;11936;50.820;4.336;2022-09-13T00:53:16;1.58;;;1.48;;
23519;SDS011;11936;50.820;4.336;2022-09-13T00:55:48;4.47;;;1.42;;
23519;SDS011;11936;50.820;4.336;2022-09-13T00:58:23;2.75;;;1.67;;
23519;SDS011;11936;50.820;4.336;2022-09-13T01:00:53;5.05;;;1.88;;
23519;SDS011;11936;50.820;4.336;2022-09-13T01:03:22;2.03;;;1.70;;
23519;SDS011;11936;50.820;4.336;2022-09-13T01:05:53;2.40;;;1.48;;
23519;SDS011;11936;50.820;4.336;2022-09-13T01:08:22;3.53;;;1.92;;
23519;SDS011;11936;50.820;4.336;2022-09-13T01:10:51;2.03;;;1.80;;
23519;SDS011;11936;50.820;4.336;2022-09-13T01:13:19;5.00;;;2.20;;
23519;SDS011;11936;50.820;4.336;2022-09-13T01:18:12;3.08;;;1.27;;
23519;SDS011;11936;50.820;4.336;2022-09-13T01:26:46;2.95;;;1.50;;
23519;SDS011;11936;50.820;4.336;2022-09-13T01:32:24;3.38;;;1.50;;
23519;SDS011;11936;50.820;4.336;2022-09-13T01:35:03;3.38;;;1.60;;
23519;SDS011;11936;50.820;4.336;2022-09-13T01:46:35;6.88;;;2.00;;
23519;SDS011;11936;50.820;4.336;2022-09-13T01:51:44;4.18;;;1.70;;
23519;SDS011;11936;50.820;4.336;2022-09-13T01:57:27;3.10;;;2.50;;
23519;SDS011;11936;50.820;4.336;2022-09-13T02:00:03;2.55;;;1.90;;
23519;SDS011;11936;50.820;4.336;2022-09-13T02:02:31;2.88;;;1.83;;
23519;SDS011;11936;50.820;4.336;2022-09-13T02:05:08;2.85;;;1.60;;
23519;SDS011;11936;50.820;4.336;2022-09-13T02:07:42;2.83;;;1.50;;
23519;SDS011;11936;50.820;4.336;2022-09-13T02:10:16;3.95;;;1.83;;
23519;SDS011;11936;50.820;4.336;2022-09-13T02:12:50;2.33;;;1.83;;
23519;SDS011;11936;50.820;4.336;2022-09-13T02:15:22;3.43;;;1.80;;
23519;SDS011;11936;50.820;4.336;2022-09-13T02:18:02;7.75;;;2.15;;
23519;SDS011;11936;50.820;4.336;2022-09-13T02:20:34;1.80;;;1.55;;
23519;SDS011;11936;50.820;4.336;2022-09-13T02:23:04;4.72;;;1.90;;
23519;SDS011;11936;50.820;4.336;2022-09-13T02:25:35;2.25;;;2.00;;
23519;SDS011;11936;50.820;4.336;2022-09-13T02:28:04;2.55;;;1.90;;
23519;SDS011;11936;50.820;4.336;2022-09-13T02:30:33;2.08;;;1.80;;
23519;SDS011;11936;50.820;4.336;2022-09-13T02:33:06;2.88;;;1.90;;
23519;SDS011;11936;50.820;4.336;2022-09-13T02:35:41;3.55;;;2.13;;
23519;SDS011;11936;50.820;4.336;2022-09-13T02:38:15;4.75;;;2.05;;
23519;SDS011;11936;50.820;4.336;2022-09-13T02:40:47;4.07;;;1.73;;
23519;SDS011;11936;50.820;4.336;2022-09-13T02:43:22;4.35;;;1.88;;
23519;SDS011;11936;50.820;4.336;2022-09-13T02:54:14;4.75;;;2.03;;
23519;SDS011;11936;50.820;4.336;2022-09-13T02:57:02;2.80;;;2.00;;
23519;SDS011;11936;50.820;4.336;2022-09-13T02:59:32;3.65;;;2.13;;
23519;SDS011;11936;50.820;4.336;2022-09-13T03:04:32;6.30;;;2.33;;
23519;SDS011;11936;50.820;4.336;2022-09-13T03:06:58;7.38;;;2.38;;
23519;SDS011;11936;50.820;4.336;2022-09-13T03:09:24;10.88;;;2.50;;
23519;SDS011;11936;50.820;4.336;2022-09-13T03:20:29;3.10;;;2.10;;
23519;SDS011;11936;50.820;4.336;2022-09-13T03:30:54;5.20;;;2.25;;
23519;SDS011;11936;50.820;4.336;2022-09-13T03:33:29;2.47;;;2.03;;
23519;SDS011;11936;50.820;4.336;2022-09-13T03:38:36;7.22;;;2.17;;
23519;SDS011;11936;50.820;4.336;2022-09-13T03:43:40;6.75;;;2.50;;
23519;SDS011;11936;50.820;4.336;2022-09-13T03:46:24;5.10;;;2.20;;
23519;SDS011;11936;50.820;4.336;2022-09-13T03:48:54;3.08;;;2.60;;
23519;SDS011;11936;50.820;4.336;2022-09-13T03:51:22;5.90;;;2.10;;
23519;SDS011;11936;50.820;4.336;2022-09-13T03:53:53;3.45;;;2.35;;
23519;SDS011;11936;50.820;4.336;2022-09-13T03:56:22;3.83;;;2.53;;
23519;SDS011;11936;50.820;4.336;2022-09-13T03:58:48;2.70;;;1.98;;
23519;SDS011;11936;50.820;4.336;2022-09-13T04:01:17;2.55;;;2.03;;
23519;SDS011;11936;50.820;4.336;2022-09-13T04:03:45;3.10;;;2.22;;
23519;SDS011;11936;50.820;4.336;2022-09-13T04:06:11;2.38;;;2.10;;
23519;SDS011;11936;50.820;4.336;2022-09-13T04:08:37;2.85;;;2.00;;
23519;SDS011;11936;50.820;4.336;2022-09-13T04:11:03;4.10;;;2.30;;
23519;SDS011;11936;50.820;4.336;2022-09-13T04:13:29;2.95;;;1.92;;
23519;SDS011;11936;50.820;4.336;2022-09-13T04:15:58;4.22;;;2.28;;
23519;SDS011;11936;50.820;4.336;2022-09-13T04:18:28;2.72;;;2.33;;
23519;SDS011;11936;50.820;4.336;2022-09-13T04:20:55;2.40;;;2.10;;
23519;SDS011;11936;50.820;4.336;2022-09-13T04:23:22;4.53;;;2.47;;
23519;SDS011;11936;50.820;4.336;2022-09-13T04:25:49;8.77;;;2.88;;
23519;SDS011;11936;50.820;4.336;2022-09-13T04:28:17;5.22;;;2.10;;
23519;SDS011;11936;50.820;4.336;2022-09-13T04:30:44;8.60;;;2.55;;
23519;SDS011;11936;50.820;4.336;2022-09-13T04:33:10;14.02;;;2.50;;
23519;SDS011;11936;50.820;4.336;2022-09-13T04:35:36;4.85;;;2.17;;
23519;SDS011;11936;50.820;4.336;2022-09-13T04:38:03;6.47;;;1.92;;
23519;SDS011;11936;50.820;4.336;2022-09-13T04:40:29;5.18;;;2.22;;
23519;SDS011;11936;50.820;4.336;2022-09-13T04:42:54;2.22;;;1.85;;
23519;SDS011;11936;50.820;4.336;2022-09-13T04:45:20;4.55;;;2.45;;
23519;SDS011;11936;50.820;4.336;2022-09-13T04:47:55;2.22;;;2.03;;
23519;SDS011;11936;50.820;4.336;2022-09-13T04:50:21;5.18;;;2.40;;
23519;SDS011;11936;50.820;4.336;2022-09-13T04:52:48;5.57;;;2.50;;
23519;SDS011;11936;50.820;4.336;2022-09-13T04:55:14;2.92;;;2.35;;
23519;SDS011;11936;50.820;4.336;2022-09-13T04:57:40;7.93;;;2.90;;
23519;SDS011;11936;50.820;4.336;2022-09-13T05:00:06;4.57;;;2.45;;
23519;SDS011;11936;50.820;4.336;2022-09-13T05:02:33;4.85;;;2.47;;
23519;SDS011;11936;50.820;4.336;2022-09-13T05:04:59;5.65;;;2.90;;
23519;SDS011;11936;50.820;4.336;2022-09-13T05:07:24;7.90;;;2.78;;
23519;SDS011;11936;50.820;4.336;2022-09-13T05:09:50;6.07;;;2.90;;
23519;SDS011;11936;50.820;4.336;2022-09-13T05:12:16;3.85;;;2.00;;
23519;SDS011;11936;50.820;4.336;2022-09-13T05:14:42;4.28;;;2.97;;
23519;SDS011;11936;50.820;4.336;2022-09-13T05:17:08;4.80;;;2.65;;
23519;SDS011;11936;50.820;4.336;2022-09-13T05:19:33;4.97;;;2.25;;
23519;SDS011;11936;50.820;4.336;2022-09-13T05:21:59;5.32;;;2.80;;
23519;SDS011;11936;50.820;4.336;2022-09-13T05:24:25;2.90;;;2.40;;
23519;SDS011;11936;50.820;4.336;2022-09-13T05:26:51;3.95;;;2.75;;
23519;SDS011;11936;50.820;4.336;2022-09-13T05:29:17;4.97;;;3.03;;
23519;SDS011;11936;50.820;4.336;2022-09-13T05:31:42;6.30;;;2.83;;
23519;SDS011;11936;50.820;4.336;2022-09-13T05:34:09;5.40;;;2.80;;
23519;SDS011;11936;50.820;4.336;2022-09-13T05:36:37;5.40;;;3.63;;
23519;SDS011;11936;50.820;4.336;2022-09-13T05:39:04;10.73;;;3.60;;
23519;SDS011;11936;50.820;4.336;2022-09-13T05:41:30;4.78;;;3.17;;
23519;SDS011;11936;50.820;4.336;2022-09-13T05:43:56;6.30;;;3.85;;
23519;SDS011;11936;50.820;4.336;2022-09-13T05:46:22;9.88;;;3.45;;
23519;SDS011;11936;50.820;4.336;2022-09-13T05:48:48;7.35;;;4.25;;
23519;SDS011;11936;50.820;4.336;2022-09-13T05:51:14;8.57;;;4.65;;
23519;SDS011;11936;50.820;4.336;2022-09-13T05:53:45;8.13;;;4.20;;
23519;SDS011;11936;50.820;4.336;2022-09-13T05:56:13;6.57;;;4.28;;
23519;SDS011;11936;50.820;4.336;2022-09-13T05:58:50;12.65;;;3.80;;
23519;SDS011;11936;50.820;4.336;2022-09-13T06:01:19;8.80;;;4.22;;
23519;SDS011;11936;50.820;4.336;2022-09-13T06:03:46;6.50;;;4.60;;
23519;SDS011;11936;50.820;4.336;2022-09-13T06:06:15;9.20;;;4.80;;
23519;SDS011;11936;50.820;4.336;2022-09-13T06:08:41;19.38;;;5.30;;
23519;SDS011;11936;50.820;4.336;2022-09-13T06:11:08;10.55;;;5.15;;
23519;SDS011;11936;50.820;4.336;2022-09-13T06:13:36;9.23;;;4.78;;
23519;SDS011;11936;50.820;4.336;2022-09-13T06:16:03;8.48;;;4.88;;
23519;SDS011;11936;50.820;4.336;2022-09-13T06:18:30;8.60;;;4.57;;
23519;SDS011;11936;50.820;4.336;2022-09-13T06:20:57;10.30;;;4.70;;
23519;SDS011;11936;50.820;4.336;2022-09-13T06:23:24;13.88;;;4.65;;
23519;SDS011;11936;50.820;4.336;2022-09-13T06:25:57;14.98;;;4.78;;
23519;SDS011;11936;50.820;4.336;2022-09-13T06:28:34;11.20;;;4.93;;
23519;SDS011;11936;50.820;4.336;2022-09-13T06:31:04;12.68;;;5.63;;
23519;SDS011;11936;50.820;4.336;2022-09-13T06:33:35;12.35;;;5.15;;
23519;SDS011;11936;50.820;4.336;2022-09-13T06:38:30;8.07;;;4.63;;
23519;SDS011;11936;50.820;4.336;2022-09-13T06:41:03;5.80;;;4.55;;
23519;SDS011;11936;50.820;4.336;2022-09-13T06:43:36;12.13;;;5.35;;
23519;SDS011;11936;50.820;4.336;2022-09-13T06:46:06;7.50;;;4.75;;
23519;SDS011;11936;50.820;4.336;2022-09-13T06:48:35;15.52;;;5.55;;
23519;SDS011;11936;50.820;4.336;2022-09-13T06:51:04;11.20;;;5.72;;
23519;SDS011;11936;50.820;4.336;2022-09-13T06:53:32;16.50;;;7.18;;
23519;SDS011;11936;50.820;4.336;2022-09-13T06:56:03;12.88;;;6.78;;
23519;SDS011;11936;50.820;4.336;2022-09-13T06:58:34;8.45;;;4.82;;
23519;SDS011;11936;50.820;4.336;2022-09-13T07:01:07;8.13;;;5.20;;
23519;SDS011;11936;50.820;4.336;2022-09-13T07:03:39;9.98;;;4.78;;
23519;SDS011;11936;50.820;4.336;2022-09-13T07:06:16;8.77;;;5.15;;
23519;SDS011;11936;50.820;4.336;2022-09-13T07:08:44;10.55;;;4.63;;
23519;SDS011;11936;50.820;4.336;2022-09-13T07:11:11;10.23;;;4.20;;
23519;SDS011;11936;50.820;4.336;2022-09-13T07:13:38;11.13;;;4.18;;
23519;SDS011;11936;50.820;4.336;2022-09-13T07:16:05;7.22;;;3.40;;
23519;SDS011;11936;50.820;4.336;2022-09-13T07:18:32;11.45;;;3.78;;
23519;SDS011;11936;50.820;4.336;2022-09-13T07:21:01;9.85;;;3.70;;
23519;SDS011;11936;50.820;4.336;2022-09-13T07:23:30;4.63;;;3.20;;
23519;SDS011;11936;50.820;4.336;2022-09-13T07:25:57;6.60;;;3.53;;
23519;SDS011;11936;50.820;4.336;2022-09-13T07:28:27;9.52;;;4.03;;
23519;SDS011;11936;50.820;4.336;2022-09-13T07:30:54;11.60;;;4.60;;
23519;SDS011;11936;50.820;4.336;2022-09-13T07:33:22;10.07;;;4.53;;
23519;SDS011;11936;50.820;4.336;2022-09-13T07:35:55;9.38;;;4.30;;
23519;SDS011;11936;50.820;4.336;2022-09-13T07:38:22;8.55;;;3.65;;
23519;SDS011;11936;50.820;4.336;2022-09-13T07:40:56;10.65;;;4.10;;
23519;SDS011;11936;50.820;4.336;2022-09-13T07:43:24;8.55;;;4.00;;
23519;SDS011;11936;50.820;4.336;2022-09-13T07:46:00;17.98;;;4.72;;
23519;SDS011;11936;50.820;4.336;2022-09-13T07:48:31;8.77;;;4.18;;
23519;SDS011;11936;50.820;4.336;2022-09-13T07:51:05;6.18;;;3.55;;
23519;SDS011;11936;50.820;4.336;2022-09-13T07:53:41;9.88;;;3.53;;
23519;SDS011;11936;50.820;4.336;2022-09-13T07:56:11;9.63;;;3.45;;
23519;SDS011;11936;50.820;4.336;2022-09-13T07:58:39;8.73;;;3.80;;
23519;SDS011;11936;50.820;4.336;2022-09-13T08:03:37;8.93;;;3.30;;
23519;SDS011;11936;50.820;4.336;2022-09-13T08:06:03;12.55;;;3.47;;
23519;SDS011;11936;50.820;4.336;2022-09-13T08:08:30;8.38;;;4.00;;
23519;SDS011;11936;50.820;4.336;2022-09-13T08:10:57;11.63;;;4.03;;
23519;SDS011;11936;50.820;4.336;2022-09-13T08:13:23;8.77;;;3.88;;
23519;SDS011;11936;50.820;4.336;2022-09-13T08:15:49;6.57;;;4.15;;
23519;SDS011;11936;50.820;4.336;2022-09-13T08:18:15;9.32;;;4.68;;
23519;SDS011;11936;50.820;4.336;2022-09-13T08:20:41;8.95;;;4.45;;
23519;SDS011;11936;50.820;4.336;2022-09-13T08:23:08;10.90;;;5.72;;
23519;SDS011;11936;50.820;4.336;2022-09-13T08:25:35;10.77;;;5.35;;
23519;SDS011;11936;50.820;4.336;2022-09-13T08:28:06;12.33;;;5.70;;
23519;SDS011;11936;50.820;4.336;2022-09-13T08:30:33;14.38;;;5.72;;
23519;SDS011;11936;50.820;4.336;2022-09-13T08:33:01;11.57;;;5.13;;
23519;SDS011;11936;50.820;4.336;2022-09-13T08:35:29;13.15;;;5.15;;
23519;SDS011;11936;50.820;4.336;2022-09-13T08:37:55;15.82;;;4.40;;
23519;SDS011;11936;50.820;4.336;2022-09-13T08:40:21;11.32;;;5.30;;
23519;SDS011;11936;50.820;4.336;2022-09-13T08:45:30;13.20;;;5.53;;
23519;SDS011;11936;50.820;4.336;2022-09-13T08:47:57;11.00;;;4.65;;
23519;SDS011;11936;50.820;4.336;2022-09-13T08:50:46;12.35;;;5.40;;
23519;SDS011;11936;50.820;4.336;2022-09-13T08:58:52;20.05;;;5.15;;
23519;SDS011;11936;50.820;4.336;2022-09-13T09:02:02;16.88;;;4.97;;
23519;SDS011;11936;50.820;4.336;2022-09-13T09:07:30;8.88;;;4.78;;
23519;SDS011;11936;50.820;4.336;2022-09-13T09:10:02;10.25;;;5.03;;
23519;SDS011;11936;50.820;4.336;2022-09-13T09:12:52;13.30;;;4.73;;
23519;SDS011;11936;50.820;4.336;2022-09-13T09:15:33;11.77;;;4.95;;
23519;SDS011;11936;50.820;4.336;2022-09-13T09:18:05;13.40;;;5.70;;
23519;SDS011;11936;50.820;4.336;2022-09-13T09:20:40;13.98;;;5.53;;
23519;SDS011;11936;50.820;4.336;2022-09-13T09:23:17;17.15;;;5.80;;
23519;SDS011;11936;50.820;4.336;2022-09-13T09:26:19;16.02;;;6.15;;
23519;SDS011;11936;50.820;4.336;2022-09-13T09:28:54;19.98;;;6.70;;
23519;SDS011;11936;50.820;4.336;2022-09-13T09:31:47;16.92;;;5.80;;
23519;SDS011;11936;50.820;4.336;2022-09-13T09:34:51;16.48;;;6.07;;
23519;SDS011;11936;50.820;4.336;2022-09-13T09:37:45;16.10;;;6.00;;
23519;SDS011;11936;50.820;4.336;2022-09-13T09:40:24;12.38;;;6.05;;
23519;SDS011;11936;50.820;4.336;2022-09-13T09:42:49;14.27;;;6.00;;
23519;SDS011;11936;50.820;4.336;2022-09-13T09:45:23;13.95;;;6.13;;
23519;SDS011;11936;50.820;4.336;2022-09-13T09:47:53;13.38;;;5.25;;
23519;SDS011;11936;50.820;4.336;2022-09-13T09:50:23;15.57;;;4.95;;
23519;SDS011;11936;50.820;4.336;2022-09-13T09:55:39;13.75;;;4.60;;
23519;SDS011;11936;50.820;4.336;2022-09-13T09:58:11;9.95;;;4.53;;
23519;SDS011;11936;50.820;4.336;2022-09-13T10:00:51;14.80;;;5.43;;
23519;SDS011;11936;50.820;4.336;2022-09-13T10:03:28;16.13;;;5.03;;
23519;SDS011;11936;50.820;4.336;2022-09-13T10:06:03;13.90;;;5.10;;
23519;SDS011;11936;50.820;4.336;2022-09-13T10:08:35;16.13;;;4.68;;
23519;SDS011;11936;50.820;4.336;2022-09-13T10:11:04;11.32;;;5.10;;
23519;SDS011;11936;50.820;4.336;2022-09-13T10:13:31;9.93;;;3.97;;
23519;SDS011;11936;50.820;4.336;2022-09-13T10:16:03;9.25;;;4.25;;
23519;SDS011;11936;50.820;4.336;2022-09-13T10:18:35;7.88;;;3.88;;
23519;SDS011;11936;50.820;4.336;2022-09-13T10:21:05;19.98;;;3.90;;
23519;SDS011;11936;50.820;4.336;2022-09-13T10:23:44;13.30;;;4.47;;
23519;SDS011;11936;50.820;4.336;2022-09-13T10:26:13;16.17;;;3.85;;
23519;SDS011;11936;50.820;4.336;2022-09-13T10:28:52;21.20;;;6.90;;
23519;SDS011;11936;50.820;4.336;2022-09-13T10:31:39;12.10;;;4.60;;
23519;SDS011;11936;50.820;4.336;2022-09-13T10:34:18;14.50;;;3.88;;
23519;SDS011;11936;50.820;4.336;2022-09-13T10:44:23;14.98;;;4.53;;
23519;SDS011;11936;50.820;4.336;2022-09-13T10:47:00;10.20;;;4.05;;
23519;SDS011;11936;50.820;4.336;2022-09-13T10:49:35;8.35;;;3.78;;
23519;SDS011;11936;50.820;4.336;2022-09-13T10:52:28;10.68;;;4.50;;
23519;SDS011;11936;50.820;4.336;2022-09-13T10:57:42;12.07;;;4.45;;
23519;SDS011;11936;50.820;4.336;2022-09-13T11:00:41;7.85;;;3.45;;
23519;SDS011;11936;50.820;4.336;2022-09-13T11:03:12;14.55;;;3.72;;
23519;SDS011;11936;50.820;4.336;2022-09-13T11:25:16;15.18;;;3.95;;
23519;SDS011;11936;50.820;4.336;2022-09-13T11:41:10;12.98;;;3.67;;
23519;SDS011;11936;50.820;4.336;2022-09-13T11:51:54;11.90;;;4.00;;
23519;SDS011;11936;50.820;4.336;2022-09-13T11:57:16;8.68;;;3.38;;
23519;SDS011;11936;50.820;4.336;2022-09-13T12:00:18;8.30;;;3.78;;
23519;SDS011;11936;50.820;4.336;2022-09-13T12:02:49;14.52;;;4.00;;
23519;SDS011;11936;50.820;4.336;2022-09-13T12:05:26;8.43;;;3.47;;
23519;SDS011;11936;50.820;4.336;2022-09-13T12:13:31;14.95;;;4.13;;
23519;SDS011;11936;50.820;4.336;2022-09-13T12:16:05;4.38;;;3.30;;
23519;SDS011;11936;50.820;4.336;2022-09-13T12:18:35;11.48;;;3.53;;
23519;SDS011;11936;50.820;4.336;2022-09-13T12:21:12;12.52;;;4.25;;
23519;SDS011;11936;50.820;4.336;2022-09-13T12:23:46;9.27;;;3.78;;
23519;SDS011;11936;50.820;4.336;2022-09-13T12:26:18;8.95;;;3.60;;
23519;SDS011;11936;50.820;4.336;2022-09-13T12:28:58;12.07;;;3.70;;
23519;SDS011;11936;50.820;4.336;2022-09-13T12:31:31;12.20;;;3.50;;
23519;SDS011;11936;50.820;4.336;2022-09-13T12:33:57;8.95;;;3.63;;
23519;SDS011;11936;50.820;4.336;2022-09-13T12:39:29;7.60;;;4.10;;
23519;SDS011;11936;50.820;4.336;2022-09-13T12:42:10;12.15;;;3.35;;
23519;SDS011;11936;50.820;4.336;2022-09-13T12:58:26;7.13;;;3.83;;
23519;SDS011;11936;50.820;4.336;2022-09-13T13:01:35;10.38;;;3.70;;
23519;SDS011;11936;50.820;4.336;2022-09-13T13:03:57;14.52;;;3.95;;
23519;SDS011;11936;50.820;4.336;2022-09-13T13:08:59;7.65;;;4.15;;
23519;SDS011;11936;50.820;4.336;2022-09-13T13:11:39;10.30;;;4.32;;
23519;SDS011;11936;50.820;4.336;2022-09-13T13:14:21;11.25;;;4.22;;
23519;SDS011;11936;50.820;4.336;2022-09-13T13:17:32;12.90;;;4.95;;
23519;SDS011;11936;50.820;4.336;2022-09-13T13:19:58;18.65;;;5.43;;
23519;SDS011;11936;50.820;4.336;2022-09-13T13:28:47;11.63;;;4.07;;
23519;SDS011;11936;50.820;4.336;2022-09-13T13:31:07;10.93;;;3.85;;
23519;SDS011;11936;50.820;4.336;2022-09-13T13:39:06;9.75;;;3.33;;
23519;SDS011;11936;50.820;4.336;2022-09-13T13:41:52;6.68;;;3.92;;
23519;SDS011;11936;50.820;4.336;2022-09-13T14:00:11;7.72;;;4.40;;
23519;SDS011;11936;50.820;4.336;2022-09-13T14:13:50;10.35;;;4.13;;
23519;SDS011;11936;50.820;4.336;2022-09-13T14:19:19;4.40;;;3.35;;
23519;SDS011;11936;50.820;4.336;2022-09-13T14:22:03;5.90;;;3.78;;
23519;SDS011;11936;50.820;4.336;2022-09-13T14:24:42;6.03;;;3.90;;
23519;SDS011;11936;50.820;4.336;2022-09-13T14:27:14;7.15;;;4.10;;
23519;SDS011;11936;50.820;4.336;2022-09-13T14:29:43;10.18;;;4.78;;
23519;SDS011;11936;50.820;4.336;2022-09-13T14:32:11;9.35;;;5.30;;
23519;SDS011;11936;50.820;4.336;2022-09-13T14:34:49;6.50;;;4.63;;
23519;SDS011;11936;50.820;4.336;2022-09-13T14:37:18;8.93;;;4.15;;
23519;SDS011;11936;50.820;4.336;2022-09-13T14:42:44;6.95;;;4.30;;
23519;SDS011;11936;50.820;4.336;2022-09-13T14:45:12;7.38;;;4.22;;
23519;SDS011;11936;50.820;4.336;2022-09-13T14:50:18;9.07;;;4.25;;
23519;SDS011;11936;50.820;4.336;2022-09-13T14:52:50;11.90;;;4.28;;
23519;SDS011;11936;50.820;4.336;2022-09-13T14:55:20;10.68;;;5.13;;
23519;SDS011;11936;50.820;4.336;2022-09-13T14:57:57;12.20;;;4.88;;
23519;SDS011;11936;50.820;4.336;2022-09-13T15:00:28;10.75;;;4.97;;
23519;SDS011;11936;50.820;4.336;2022-09-13T15:02:58;10.10;;;5.22;;
23519;SDS011;11936;50.820;4.336;2022-09-13T15:05:30;10.18;;;5.25;;
23519;SDS011;11936;50.820;4.336;2022-09-13T15:07:57;9.88;;;5.22;;
23519;SDS011;11936;50.820;4.336;2022-09-13T15:10:24;9.10;;;5.03;;
23519;SDS011;11936;50.820;4.336;2022-09-13T15:15:33;9.68;;;4.45;;
23519;SDS011;11936;50.820;4.336;2022-09-13T15:26:06;10.20;;;5.63;;
23519;SDS011;11936;50.820;4.336;2022-09-13T15:31:05;16.00;;;5.75;;
23519;SDS011;11936;50.820;4.336;2022-09-13T15:33:32;10.98;;;5.15;;
23519;SDS011;11936;50.820;4.336;2022-09-13T15:41:40;14.82;;;6.70;;
23519;SDS011;11936;50.820;4.336;2022-09-13T15:44:19;8.85;;;6.55;;
23519;SDS011;11936;50.820;4.336;2022-09-13T15:46:49;11.52;;;5.40;;
23519;SDS011;11936;50.820;4.336;2022-09-13T15:49:23;11.07;;;5.78;;
23519;SDS011;11936;50.820;4.336;2022-09-13T15:51:55;9.80;;;7.22;;
23519;SDS011;11936;50.820;4.336;2022-09-13T15:54:27;19.55;;;7.88;;
23519;SDS011;11936;50.820;4.336;2022-09-13T15:57:06;18.00;;;6.72;;
23519;SDS011;11936;50.820;4.336;2022-09-13T15:59:46;18.75;;;5.75;;
23519;SDS011;11936;50.820;4.336;2022-09-13T16:02:30;12.55;;;5.85;;
23519;SDS011;11936;50.820;4.336;2022-09-13T16:04:57;9.07;;;4.95;;
23519;SDS011;11936;50.820;4.336;2022-09-13T16:07:23;13.55;;;6.25;;
23519;SDS011;11936;50.820;4.336;2022-09-13T16:09:50;6.80;;;5.38;;
23519;SDS011;11936;50.820;4.336;2022-09-13T16:12:17;7.63;;;5.22;;
23519;SDS011;11936;50.820;4.336;2022-09-13T16:14:45;8.30;;;5.22;;
23519;SDS011;11936;50.820;4.336;2022-09-13T16:17:12;11.43;;;5.13;;
23519;SDS011;11936;50.820;4.336;2022-09-13T16:19:47;13.63;;;4.82;;
23519;SDS011;11936;50.820;4.336;2022-09-13T16:22:13;8.82;;;5.05;;
23519;SDS011;11936;50.820;4.336;2022-09-13T16:24:39;12.13;;;5.50;;
23519;SDS011;11936;50.820;4.336;2022-09-13T16:27:05;14.27;;;5.50;;
23519;SDS011;11936;50.820;4.336;2022-09-13T16:29:30;8.70;;;4.85;;
23519;SDS011;11936;50.820;4.336;2022-09-13T16:31:56;8.30;;;5.30;;
23519;SDS011;11936;50.820;4.336;2022-09-13T16:34:24;7.93;;;5.18;;
23519;SDS011;11936;50.820;4.336;2022-09-13T16:36:50;7.55;;;4.82;;
23519;SDS011;11936;50.820;4.336;2022-09-13T16:39:16;11.93;;;4.78;;
23519;SDS011;11936;50.820;4.336;2022-09-13T16:41:42;8.63;;;4.65;;
23519;SDS011;11936;50.820;4.336;2022-09-13T16:44:07;7.97;;;4.95;;
23519;SDS011;11936;50.820;4.336;2022-09-13T16:46:33;6.93;;;5.80;;
23519;SDS011;11936;50.820;4.336;2022-09-13T16:48:59;17.88;;;5.78;;
23519;SDS011;11936;50.820;4.336;2022-09-13T16:51:25;11.35;;;5.75;;
23519;SDS011;11936;50.820;4.336;2022-09-13T16:53:51;10.60;;;5.50;;
23519;SDS011;11936;50.820;4.336;2022-09-13T16:56:18;11.20;;;5.35;;
23519;SDS011;11936;50.820;4.336;2022-09-13T16:58:46;9.38;;;5.03;;
23519;SDS011;11936;50.820;4.336;2022-09-13T17:01:12;10.93;;;5.35;;
23519;SDS011;11936;50.820;4.336;2022-09-13T17:03:40;7.22;;;5.15;;
23519;SDS011;11936;50.820;4.336;2022-09-13T17:06:06;7.63;;;5.28;;
23519;SDS011;11936;50.820;4.336;2022-09-13T17:08:35;7.70;;;5.25;;
23519;SDS011;11936;50.820;4.336;2022-09-13T17:11:05;9.57;;;5.05;;
23519;SDS011;11936;50.820;4.336;2022-09-13T17:13:33;12.55;;;5.63;;
23519;SDS011;11936;50.820;4.336;2022-09-13T17:16:00;8.73;;;5.50;;
23519;SDS011;11936;50.820;4.336;2022-09-13T17:18:25;12.27;;;5.53;;
23519;SDS011;11936;50.820;4.336;2022-09-13T17:20:51;9.05;;;4.45;;
23519;SDS011;11936;50.820;4.336;2022-09-13T17:23:17;8.98;;;5.15;;
23519;SDS011;11936;50.820;4.336;2022-09-13T17:25:44;9.77;;;5.85;;
23519;SDS011;11936;50.820;4.336;2022-09-13T17:30:37;7.85;;;5.20;;
23519;SDS011;11936;50.820;4.336;2022-09-13T17:33:03;8.93;;;4.93;;
23519;SDS011;11936;50.820;4.336;2022-09-13T17:35:30;8.90;;;5.95;;
23519;SDS011;11936;50.820;4.336;2022-09-13T17:37:56;9.43;;;6.28;;
23519;SDS011;11936;50.820;4.336;2022-09-13T17:40:23;10.70;;;6.30;;
23519;SDS011;11936;50.820;4.336;2022-09-13T17:42:49;11.68;;;5.78;;
23519;SDS011;11936;50.820;4.336;2022-09-13T17:45:15;11.80;;;6.78;;
23519;SDS011;11936;50.820;4.336;2022-09-13T17:47:41;10.30;;;6.63;;
23519;SDS011;11936;50.820;4.336;2022-09-13T17:50:06;12.77;;;6.65;;
23519;SDS011;11936;50.820;4.336;2022-09-13T17:52:32;8.77;;;6.57;;
23519;SDS011;11936;50.820;4.336;2022-09-13T17:54:58;11.32;;;6.75;;
23519;SDS011;11936;50.820;4.336;2022-09-13T17:57:23;10.48;;;6.82;;
23519;SDS011;11936;50.820;4.336;2022-09-13T17:59:49;9.77;;;7.05;;
23519;SDS011;11936;50.820;4.336;2022-09-13T18:02:16;10.60;;;7.00;;
23519;SDS011;11936;50.820;4.336;2022-09-13T18:04:41;12.55;;;7.40;;
23519;SDS011;11936;50.820;4.336;2022-09-13T18:07:07;12.35;;;7.65;;
23519;SDS011;11936;50.820;4.336;2022-09-13T18:09:33;10.95;;;7.50;;
23519;SDS011;11936;50.820;4.336;2022-09-13T18:11:58;9.52;;;7.90;;
23519;SDS011;11936;50.820;4.336;2022-09-13T18:14:24;9.50;;;8.48;;
23519;SDS011;11936;50.820;4.336;2022-09-13T18:16:51;11.35;;;8.48;;
23519;SDS011;11936;50.820;4.336;2022-09-13T18:19:20;12.10;;;8.38;;
23519;SDS011;11936;50.820;4.336;2022-09-13T18:21:47;13.20;;;8.25;;
23519;SDS011;11936;50.820;4.336;2022-09-13T18:24:13;13.02;;;8.13;;
23519;SDS011;11936;50.820;4.336;2022-09-13T18:26:38;11.98;;;7.72;;
23519;SDS011;11936;50.820;4.336;2022-09-13T18:29:05;10.60;;;7.65;;
23519;SDS011;11936;50.820;4.336;2022-09-13T18:31:34;11.60;;;7.80;;
23519;SDS011;11936;50.820;4.336;2022-09-13T18:34:02;11.63;;;8.05;;
23519;SDS011;11936;50.820;4.336;2022-09-13T18:36:29;10.50;;;8.05;;
23519;SDS011;11936;50.820;4.336;2022-09-13T18:38:57;10.38;;;8.15;;
23519;SDS011;11936;50.820;4.336;2022-09-13T18:41:28;10.90;;;7.75;;
23519;SDS011;11936;50.820;4.336;2022-09-13T18:43:56;9.13;;;7.93;;
23519;SDS011;11936;50.820;4.336;2022-09-13T18:46:24;12.43;;;8.68;;
23519;SDS011;11936;50.820;4.336;2022-09-13T18:48:52;13.48;;;8.73;;